sensor_id;sensor_type;location;lat;lon;timestamp;P1;durP1;ratioP1;P2;durP2;ratioP2
55316;SDS011;41178;48.956;8.130;2023-04-22T00:01:43;9.10;;;7.70;;
55316;SDS011;41178;48.956;8.130;2023-04-22T00:06:45;9.50;;;7.63;;
55316;SDS011;41178;48.956;8.130;2023-04-22T00:11:46;10.20;;;8.00;;
55316;SDS011;41178;48.956;8.130;2023-04-22T00:16:48;9.47;;;7.67;;
55316;SDS011;41178;48.956;8.130;2023-04-22T00:21:50;8.07;;;6.63;;
55316;SDS011;41178;48.956;8.130;2023-04-22T00:26:51;9.37;;;7.87;;
55316;SDS011;41178;48.956;8.130;2023-04-22T00:31:53;8.33;;;7.20;;
55316;SDS011;41178;48.956;8.130;2023-04-22T00:36:55;9.17;;;7.47;;
55316;SDS011;41178;48.956;8.130;2023-04-22T00:41:57;8.83;;;7.77;;
55316;SDS011;41178;48.956;8.130;2023-04-22T00:46:59;9.27;;;8.07;;
55316;SDS011;41178;48.956;8.130;2023-04-22T00:52:01;8.97;;;7.80;;
55316;SDS011;41178;48.956;8.130;2023-04-22T00:57:03;10.07;;;8.30;;
55316;SDS011;41178;48.956;8.130;2023-04-22T01:02:05;9.30;;;7.90;;
55316;SDS011;41178;48.956;8.130;2023-04-22T01:07:07;8.90;;;7.70;;
55316;SDS011;41178;48.956;8.130;2023-04-22T01:12:09;7.90;;;6.87;;
55316;SDS011;41178;48.956;8.130;2023-04-22T01:17:10;8.43;;;7.07;;
55316;SDS011;41178;48.956;8.130;2023-04-22T01:22:14;11.37;;;6.50;;
55316;SDS011;41178;48.956;8.130;2023-04-22T01:27:17;8.03;;;7.23;;
55316;SDS011;41178;48.956;8.130;2023-04-22T01:32:18;7.60;;;6.43;;
55316;SDS011;41178;48.956;8.130;2023-04-22T01:37:21;7.57;;;6.77;;
55316;SDS011;41178;48.956;8.130;2023-04-22T01:42:23;7.23;;;6.23;;
55316;SDS011;41178;48.956;8.130;2023-04-22T01:47:25;6.80;;;6.10;;
55316;SDS011;41178;48.956;8.130;2023-04-22T01:52:27;7.53;;;6.60;;
55316;SDS011;41178;48.956;8.130;2023-04-22T01:57:29;8.10;;;5.90;;
55316;SDS011;41178;48.956;8.130;2023-04-22T02:02:31;8.27;;;6.70;;
55316;SDS011;41178;48.956;8.130;2023-04-22T02:07:33;7.60;;;6.20;;
55316;SDS011;41178;48.956;8.130;2023-04-22T02:12:36;6.43;;;5.63;;
55316;SDS011;41178;48.956;8.130;2023-04-22T02:17:39;7.50;;;5.90;;
55316;SDS011;41178;48.956;8.130;2023-04-22T02:22:42;9.07;;;6.60;;
55316;SDS011;41178;48.956;8.130;2023-04-22T02:27:44;10.10;;;7.17;;
55316;SDS011;41178;48.956;8.130;2023-04-22T02:32:46;8.53;;;6.53;;
55316;SDS011;41178;48.956;8.130;2023-04-22T02:37:47;9.03;;;6.77;;
55316;SDS011;41178;48.956;8.130;2023-04-22T02:42:49;8.20;;;6.63;;
55316;SDS011;41178;48.956;8.130;2023-04-22T02:47:51;8.37;;;7.57;;
55316;SDS011;41178;48.956;8.130;2023-04-22T02:52:53;8.90;;;7.40;;
55316;SDS011;41178;48.956;8.130;2023-04-22T02:57:54;9.10;;;7.70;;
55316;SDS011;41178;48.956;8.130;2023-04-22T03:02:56;8.70;;;7.10;;
55316;SDS011;41178;48.956;8.130;2023-04-22T03:07:58;8.33;;;7.53;;
55316;SDS011;41178;48.956;8.130;2023-04-22T03:12:59;8.23;;;7.40;;
55316;SDS011;41178;48.956;8.130;2023-04-22T03:18:01;9.63;;;7.40;;
55316;SDS011;41178;48.956;8.130;2023-04-22T03:23:03;8.70;;;7.20;;
55316;SDS011;41178;48.956;8.130;2023-04-22T03:28:07;8.83;;;7.40;;
55316;SDS011;41178;48.956;8.130;2023-04-22T03:33:09;8.53;;;6.83;;
55316;SDS011;41178;48.956;8.130;2023-04-22T03:38:11;9.00;;;6.83;;
55316;SDS011;41178;48.956;8.130;2023-04-22T03:43:13;6.70;;;6.00;;
55316;SDS011;41178;48.956;8.130;2023-04-22T03:48:15;8.13;;;7.00;;
55316;SDS011;41178;48.956;8.130;2023-04-22T03:53:17;7.23;;;6.50;;
55316;SDS011;41178;48.956;8.130;2023-04-22T03:58:18;7.90;;;7.10;;
55316;SDS011;41178;48.956;8.130;2023-04-22T04:03:20;8.10;;;7.30;;
55316;SDS011;41178;48.956;8.130;2023-04-22T04:08:22;8.47;;;7.67;;
55316;SDS011;41178;48.956;8.130;2023-04-22T04:13:24;8.43;;;7.40;;
55316;SDS011;41178;48.956;8.130;2023-04-22T04:18:25;8.53;;;7.43;;
55316;SDS011;41178;48.956;8.130;2023-04-22T04:23:27;10.93;;;8.83;;
55316;SDS011;41178;48.956;8.130;2023-04-22T04:28:29;9.90;;;8.90;;
55316;SDS011;41178;48.956;8.130;2023-04-22T04:33:33;12.00;;;10.07;;
55316;SDS011;41178;48.956;8.130;2023-04-22T04:38:34;11.30;;;10.10;;
55316;SDS011;41178;48.956;8.130;2023-04-22T04:43:36;10.23;;;9.03;;
55316;SDS011;41178;48.956;8.130;2023-04-22T04:48:39;10.40;;;9.30;;
55316;SDS011;41178;48.956;8.130;2023-04-22T04:53:42;10.13;;;9.13;;
55316;SDS011;41178;48.956;8.130;2023-04-22T04:58:44;10.43;;;8.13;;
55316;SDS011;41178;48.956;8.130;2023-04-22T05:03:45;9.07;;;8.10;;
55316;SDS011;41178;48.956;8.130;2023-04-22T05:08:47;10.27;;;8.73;;
55316;SDS011;41178;48.956;8.130;2023-04-22T05:13:49;10.77;;;8.73;;
55316;SDS011;41178;48.956;8.130;2023-04-22T05:18:50;10.73;;;9.63;;
55316;SDS011;41178;48.956;8.130;2023-04-22T05:23:52;10.80;;;9.70;;
55316;SDS011;41178;48.956;8.130;2023-04-22T05:28:53;11.43;;;10.23;;
55316;SDS011;41178;48.956;8.130;2023-04-22T05:33:55;11.67;;;10.47;;
55316;SDS011;41178;48.956;8.130;2023-04-22T05:38:56;14.87;;;11.13;;
55316;SDS011;41178;48.956;8.130;2023-04-22T05:43:58;12.40;;;11.03;;
55316;SDS011;41178;48.956;8.130;2023-04-22T05:49:00;12.63;;;11.27;;
55316;SDS011;41178;48.956;8.130;2023-04-22T05:54:01;10.73;;;9.23;;
55316;SDS011;41178;48.956;8.130;2023-04-22T05:59:03;18.83;;;14.87;;
55316;SDS011;41178;48.956;8.130;2023-04-22T06:04:04;27.90;;;22.50;;
55316;SDS011;41178;48.956;8.130;2023-04-22T06:09:07;23.67;;;19.37;;
55316;SDS011;41178;48.956;8.130;2023-04-22T06:14:08;20.57;;;15.13;;
55316;SDS011;41178;48.956;8.130;2023-04-22T06:19:10;14.57;;;12.60;;
55316;SDS011;41178;48.956;8.130;2023-04-22T06:29:21;11.30;;;9.00;;
55316;SDS011;41178;48.956;8.130;2023-04-22T06:34:22;10.87;;;9.77;;
55316;SDS011;41178;48.956;8.130;2023-04-22T06:39:24;10.73;;;9.63;;
55316;SDS011;41178;48.956;8.130;2023-04-22T06:44:26;10.73;;;9.63;;
55316;SDS011;41178;48.956;8.130;2023-04-22T06:49:27;11.50;;;10.37;;
55316;SDS011;41178;48.956;8.130;2023-04-22T06:54:29;11.50;;;9.17;;
55316;SDS011;41178;48.956;8.130;2023-04-22T06:59:32;10.27;;;8.97;;
55316;SDS011;41178;48.956;8.130;2023-04-22T07:04:34;9.57;;;8.57;;
55316;SDS011;41178;48.956;8.130;2023-04-22T07:09:35;9.47;;;8.20;;
55316;SDS011;41178;48.956;8.130;2023-04-22T07:14:41;9.47;;;8.57;;
55316;SDS011;41178;48.956;8.130;2023-04-22T07:19:46;9.03;;;7.50;;
55316;SDS011;41178;48.956;8.130;2023-04-22T07:24:48;9.10;;;7.70;;
55316;SDS011;41178;48.956;8.130;2023-04-22T07:29:49;8.63;;;7.43;;
55316;SDS011;41178;48.956;8.130;2023-04-22T07:34:51;7.07;;;6.30;;
55316;SDS011;41178;48.956;8.130;2023-04-22T07:39:53;7.33;;;6.07;;
55316;SDS011;41178;48.956;8.130;2023-04-22T07:44:54;6.77;;;6.03;;
55316;SDS011;41178;48.956;8.130;2023-04-22T07:49:56;7.07;;;5.70;;
55316;SDS011;41178;48.956;8.130;2023-04-22T07:54:58;9.23;;;5.97;;
55316;SDS011;41178;48.956;8.130;2023-04-22T08:00:01;7.00;;;4.80;;
55316;SDS011;41178;48.956;8.130;2023-04-22T08:05:02;5.30;;;4.60;;
55316;SDS011;41178;48.956;8.130;2023-04-22T08:10:05;6.13;;;5.43;;
55316;SDS011;41178;48.956;8.130;2023-04-22T08:15:07;5.30;;;4.80;;
55316;SDS011;41178;48.956;8.130;2023-04-22T08:20:09;7.60;;;5.57;;
55316;SDS011;41178;48.956;8.130;2023-04-22T08:25:11;6.50;;;5.17;;
55316;SDS011;41178;48.956;8.130;2023-04-22T08:30:13;5.43;;;4.87;;
55316;SDS011;41178;48.956;8.130;2023-04-22T08:35:15;5.47;;;4.80;;
55316;SDS011;41178;48.956;8.130;2023-04-22T08:40:16;6.50;;;5.53;;
55316;SDS011;41178;48.956;8.130;2023-04-22T08:45:18;6.27;;;4.53;;
55316;SDS011;41178;48.956;8.130;2023-04-22T08:50:21;6.37;;;4.83;;
55316;SDS011;41178;48.956;8.130;2023-04-22T08:55:23;5.37;;;4.57;;
55316;SDS011;41178;48.956;8.130;2023-04-22T09:00:26;5.07;;;4.53;;
55316;SDS011;41178;48.956;8.130;2023-04-22T09:05:28;4.43;;;4.03;;
55316;SDS011;41178;48.956;8.130;2023-04-22T09:10:35;4.67;;;4.00;;
55316;SDS011;41178;48.956;8.130;2023-04-22T09:15:37;5.37;;;4.50;;
55316;SDS011;41178;48.956;8.130;2023-04-22T09:20:40;5.40;;;4.90;;
55316;SDS011;41178;48.956;8.130;2023-04-22T09:25:43;5.20;;;4.70;;
55316;SDS011;41178;48.956;8.130;2023-04-22T09:30:45;6.87;;;4.67;;
55316;SDS011;41178;48.956;8.130;2023-04-22T09:35:47;7.07;;;4.40;;
55316;SDS011;41178;48.956;8.130;2023-04-22T09:40:48;5.10;;;3.70;;
55316;SDS011;41178;48.956;8.130;2023-04-22T09:45:51;5.43;;;3.87;;
55316;SDS011;41178;48.956;8.130;2023-04-22T09:50:53;4.47;;;4.03;;
55316;SDS011;41178;48.956;8.130;2023-04-22T09:55:54;4.00;;;3.60;;
55316;SDS011;41178;48.956;8.130;2023-04-22T10:00:57;4.30;;;3.50;;
55316;SDS011;41178;48.956;8.130;2023-04-22T10:06:03;5.37;;;3.33;;
55316;SDS011;41178;48.956;8.130;2023-04-22T10:11:05;5.33;;;3.50;;
55316;SDS011;41178;48.956;8.130;2023-04-22T10:16:07;5.00;;;3.60;;
55316;SDS011;41178;48.956;8.130;2023-04-22T10:21:09;4.57;;;4.13;;
55316;SDS011;41178;48.956;8.130;2023-04-22T10:26:11;4.00;;;3.53;;
55316;SDS011;41178;48.956;8.130;2023-04-22T10:31:20;3.30;;;2.97;;
55316;SDS011;41178;48.956;8.130;2023-04-22T10:36:22;4.20;;;3.13;;
55316;SDS011;41178;48.956;8.130;2023-04-22T10:41:25;2.83;;;2.40;;
55316;SDS011;41178;48.956;8.130;2023-04-22T11:06:30;2.75;;;2.55;;
55316;SDS011;41178;48.956;8.130;2023-04-22T11:11:32;2.67;;;2.30;;
55316;SDS011;41178;48.956;8.130;2023-04-22T11:16:34;2.53;;;2.10;;
55316;SDS011;41178;48.956;8.130;2023-04-22T11:21:36;3.17;;;2.50;;
55316;SDS011;41178;48.956;8.130;2023-04-22T11:26:38;2.53;;;2.33;;
55316;SDS011;41178;48.956;8.130;2023-04-22T11:31:47;3.05;;;2.50;;
55316;SDS011;41178;48.956;8.130;2023-04-22T11:36:49;3.17;;;2.60;;
55316;SDS011;41178;48.956;8.130;2023-04-22T11:41:50;4.43;;;2.70;;
55316;SDS011;41178;48.956;8.130;2023-04-22T11:46:55;4.15;;;2.80;;
55316;SDS011;41178;48.956;8.130;2023-04-22T11:51:57;5.65;;;2.67;;
55316;SDS011;41178;48.956;8.130;2023-04-22T11:57:06;2.50;;;2.30;;
55316;SDS011;41178;48.956;8.130;2023-04-22T12:02:08;2.65;;;2.20;;
55316;SDS011;41178;48.956;8.130;2023-04-22T12:07:10;3.40;;;2.70;;
55316;SDS011;41178;48.956;8.130;2023-04-22T12:12:12;3.33;;;2.40;;
55316;SDS011;41178;48.956;8.130;2023-04-22T12:17:15;3.20;;;2.88;;
55316;SDS011;41178;48.956;8.130;2023-04-22T12:22:23;4.57;;;2.22;;
55316;SDS011;41178;48.956;8.130;2023-04-22T12:27:26;3.28;;;2.38;;
55316;SDS011;41178;48.956;8.130;2023-04-22T12:32:28;2.03;;;1.73;;
55316;SDS011;41178;48.956;8.130;2023-04-22T12:37:29;2.55;;;2.00;;
55316;SDS011;41178;48.956;8.130;2023-04-22T12:42:31;2.28;;;1.90;;
55316;SDS011;41178;48.956;8.130;2023-04-22T12:47:33;2.78;;;1.75;;
55316;SDS011;41178;48.956;8.130;2023-04-22T12:52:35;2.15;;;1.95;;
55316;SDS011;41178;48.956;8.130;2023-04-22T12:57:37;3.60;;;1.90;;
55316;SDS011;41178;48.956;8.130;2023-04-22T13:02:41;2.42;;;1.90;;
55316;SDS011;41178;48.956;8.130;2023-04-22T13:07:44;2.63;;;2.00;;
55316;SDS011;41178;48.956;8.130;2023-04-22T13:13:00;5.00;;;2.03;;
55316;SDS011;41178;48.956;8.130;2023-04-22T13:18:18;3.15;;;2.08;;
55316;SDS011;41178;48.956;8.130;2023-04-22T13:23:20;2.85;;;1.80;;
55316;SDS011;41178;48.956;8.130;2023-04-22T13:28:22;2.88;;;1.70;;
55316;SDS011;41178;48.956;8.130;2023-04-22T13:33:23;2.33;;;1.65;;
55316;SDS011;41178;48.956;8.130;2023-04-22T13:38:25;3.35;;;2.00;;
55316;SDS011;41178;48.956;8.130;2023-04-22T13:43:27;1.55;;;1.40;;
55316;SDS011;41178;48.956;8.130;2023-04-22T13:48:28;5.55;;;2.15;;
55316;SDS011;41178;48.956;8.130;2023-04-22T13:53:30;2.03;;;1.90;;
55316;SDS011;41178;48.956;8.130;2023-04-22T13:58:34;3.63;;;2.20;;
55316;SDS011;41178;48.956;8.130;2023-04-22T14:03:36;1.75;;;1.65;;
55316;SDS011;41178;48.956;8.130;2023-04-22T14:08:38;1.85;;;1.67;;
55316;SDS011;41178;48.956;8.130;2023-04-22T14:13:39;2.38;;;2.17;;
55316;SDS011;41178;48.956;8.130;2023-04-22T14:18:41;4.75;;;2.13;;
55316;SDS011;41178;48.956;8.130;2023-04-22T14:23:42;3.72;;;2.17;;
55316;SDS011;41178;48.956;8.130;2023-04-22T14:28:44;2.08;;;1.80;;
55316;SDS011;41178;48.956;8.130;2023-04-22T14:33:46;2.15;;;1.95;;
55316;SDS011;41178;48.956;8.130;2023-04-22T14:38:47;2.35;;;2.15;;
55316;SDS011;41178;48.956;8.130;2023-04-22T14:43:49;2.92;;;2.00;;
55316;SDS011;41178;48.956;8.130;2023-04-22T14:48:51;5.05;;;1.90;;
55316;SDS011;41178;48.956;8.130;2023-04-22T14:53:52;3.22;;;2.03;;
55316;SDS011;41178;48.956;8.130;2023-04-22T14:58:54;3.53;;;2.28;;
55316;SDS011;41178;48.956;8.130;2023-04-22T15:03:56;4.10;;;1.85;;
55316;SDS011;41178;48.956;8.130;2023-04-22T15:08:58;2.30;;;2.10;;
55316;SDS011;41178;48.956;8.130;2023-04-22T15:14:00;2.90;;;2.05;;
55316;SDS011;41178;48.956;8.130;2023-04-22T15:19:01;4.07;;;2.50;;
55316;SDS011;41178;48.956;8.130;2023-04-22T15:24:03;3.55;;;2.50;;
55316;SDS011;41178;48.956;8.130;2023-04-22T15:29:05;3.42;;;2.22;;
55316;SDS011;41178;48.956;8.130;2023-04-22T15:34:06;2.70;;;2.00;;
55316;SDS011;41178;48.956;8.130;2023-04-22T15:39:08;2.33;;;2.10;;
55316;SDS011;41178;48.956;8.130;2023-04-22T15:44:10;8.57;;;2.65;;
55316;SDS011;41178;48.956;8.130;2023-04-22T15:49:13;2.33;;;2.15;;
55316;SDS011;41178;48.956;8.130;2023-04-22T15:54:17;3.35;;;2.30;;
55316;SDS011;41178;48.956;8.130;2023-04-22T15:59:19;5.32;;;2.50;;
55316;SDS011;41178;48.956;8.130;2023-04-22T16:04:21;5.45;;;3.40;;
55316;SDS011;41178;48.956;8.130;2023-04-22T16:09:22;4.80;;;2.70;;
55316;SDS011;41178;48.956;8.130;2023-04-22T16:14:24;4.97;;;2.88;;
55316;SDS011;41178;48.956;8.130;2023-04-22T16:19:26;7.03;;;3.40;;
55316;SDS011;41178;48.956;8.130;2023-04-22T16:24:27;2.45;;;2.25;;
55316;SDS011;41178;48.956;8.130;2023-04-22T16:29:29;5.78;;;2.20;;
55316;SDS011;41178;48.956;8.130;2023-04-22T16:34:31;4.88;;;2.17;;
55316;SDS011;41178;48.956;8.130;2023-04-22T16:39:32;3.20;;;2.55;;
55316;SDS011;41178;48.956;8.130;2023-04-22T16:44:34;4.13;;;2.55;;
55316;SDS011;41178;48.956;8.130;2023-04-22T16:49:36;3.60;;;2.00;;
55316;SDS011;41178;48.956;8.130;2023-04-22T16:54:37;3.85;;;2.22;;
55316;SDS011;41178;48.956;8.130;2023-04-22T16:59:40;5.13;;;2.47;;
55316;SDS011;41178;48.956;8.130;2023-04-22T17:04:42;4.10;;;2.47;;
55316;SDS011;41178;48.956;8.130;2023-04-22T17:09:44;6.00;;;2.37;;
55316;SDS011;41178;48.956;8.130;2023-04-22T17:14:46;3.23;;;2.13;;
55316;SDS011;41178;48.956;8.130;2023-04-22T17:19:48;4.27;;;2.80;;
55316;SDS011;41178;48.956;8.130;2023-04-22T17:24:49;7.20;;;3.23;;
55316;SDS011;41178;48.956;8.130;2023-04-22T17:29:51;2.85;;;2.13;;
55316;SDS011;41178;48.956;8.130;2023-04-22T17:34:53;3.53;;;2.80;;
55316;SDS011;41178;48.956;8.130;2023-04-22T17:39:55;4.13;;;2.43;;
55316;SDS011;41178;48.956;8.130;2023-04-22T17:44:56;4.60;;;3.03;;
55316;SDS011;41178;48.956;8.130;2023-04-22T17:49:58;3.80;;;2.90;;
55316;SDS011;41178;48.956;8.130;2023-04-22T17:54:59;2.70;;;2.50;;
55316;SDS011;41178;48.956;8.130;2023-04-22T18:00:01;3.33;;;2.50;;
55316;SDS011;41178;48.956;8.130;2023-04-22T18:05:03;3.17;;;2.40;;
55316;SDS011;41178;48.956;8.130;2023-04-22T18:10:06;2.85;;;2.30;;
55316;SDS011;41178;48.956;8.130;2023-04-22T18:15:08;5.63;;;2.40;;
55316;SDS011;41178;48.956;8.130;2023-04-22T18:20:10;4.23;;;3.07;;
55316;SDS011;41178;48.956;8.130;2023-04-22T18:25:19;5.73;;;3.30;;
55316;SDS011;41178;48.956;8.130;2023-04-22T18:30:21;5.37;;;3.37;;
55316;SDS011;41178;48.956;8.130;2023-04-22T18:35:24;4.97;;;2.70;;
55316;SDS011;41178;48.956;8.130;2023-04-22T18:40:26;6.00;;;2.53;;
55316;SDS011;41178;48.956;8.130;2023-04-22T18:45:28;3.30;;;2.10;;
55316;SDS011;41178;48.956;8.130;2023-04-22T18:50:29;3.87;;;2.90;;
55316;SDS011;41178;48.956;8.130;2023-04-22T18:55:31;2.40;;;2.20;;
55316;SDS011;41178;48.956;8.130;2023-04-22T19:00:33;3.77;;;2.77;;
55316;SDS011;41178;48.956;8.130;2023-04-22T19:05:35;3.70;;;2.80;;
55316;SDS011;41178;48.956;8.130;2023-04-22T19:10:38;6.03;;;2.53;;
55316;SDS011;41178;48.956;8.130;2023-04-22T19:15:40;3.67;;;2.70;;
55316;SDS011;41178;48.956;8.130;2023-04-22T19:20:42;4.93;;;3.00;;
55316;SDS011;41178;48.956;8.130;2023-04-22T19:25:45;3.50;;;2.90;;
55316;SDS011;41178;48.956;8.130;2023-04-22T19:30:47;3.13;;;2.67;;
55316;SDS011;41178;48.956;8.130;2023-04-22T19:35:48;3.43;;;2.93;;
55316;SDS011;41178;48.956;8.130;2023-04-22T19:40:50;6.00;;;3.20;;
55316;SDS011;41178;48.956;8.130;2023-04-22T19:45:52;4.47;;;2.80;;
55316;SDS011;41178;48.956;8.130;2023-04-22T19:50:54;3.77;;;3.00;;
55316;SDS011;41178;48.956;8.130;2023-04-22T19:55:56;6.70;;;3.53;;
55316;SDS011;41178;48.956;8.130;2023-04-22T20:00:58;4.53;;;3.27;;
55316;SDS011;41178;48.956;8.130;2023-04-22T20:06:00;3.83;;;2.87;;
55316;SDS011;41178;48.956;8.130;2023-04-22T20:11:02;4.47;;;3.30;;
55316;SDS011;41178;48.956;8.130;2023-04-22T20:16:04;4.27;;;3.23;;
55316;SDS011;41178;48.956;8.130;2023-04-22T20:21:06;3.73;;;3.10;;
55316;SDS011;41178;48.956;8.130;2023-04-22T20:26:08;5.43;;;3.43;;
55316;SDS011;41178;48.956;8.130;2023-04-22T20:31:14;3.93;;;3.40;;
55316;SDS011;41178;48.956;8.130;2023-04-22T20:36:21;5.83;;;3.40;;
55316;SDS011;41178;48.956;8.130;2023-04-22T20:41:24;4.93;;;3.53;;
55316;SDS011;41178;48.956;8.130;2023-04-22T20:46:26;5.50;;;3.17;;
55316;SDS011;41178;48.956;8.130;2023-04-22T20:51:28;4.80;;;3.40;;
55316;SDS011;41178;48.956;8.130;2023-04-22T20:56:32;5.60;;;3.60;;
55316;SDS011;41178;48.956;8.130;2023-04-22T21:01:33;4.80;;;3.13;;
55316;SDS011;41178;48.956;8.130;2023-04-22T21:06:35;4.17;;;3.33;;
55316;SDS011;41178;48.956;8.130;2023-04-22T21:11:38;3.80;;;3.33;;
55316;SDS011;41178;48.956;8.130;2023-04-22T21:16:41;4.63;;;3.30;;
55316;SDS011;41178;48.956;8.130;2023-04-22T21:21:45;4.43;;;3.60;;
55316;SDS011;41178;48.956;8.130;2023-04-22T21:26:48;4.90;;;3.87;;
55316;SDS011;41178;48.956;8.130;2023-04-22T21:31:50;4.53;;;4.10;;
55316;SDS011;41178;48.956;8.130;2023-04-22T21:37:07;7.70;;;3.93;;
55316;SDS011;41178;48.956;8.130;2023-04-22T21:42:09;5.03;;;4.07;;
55316;SDS011;41178;48.956;8.130;2023-04-22T21:47:11;5.33;;;3.93;;
55316;SDS011;41178;48.956;8.130;2023-04-22T21:52:13;4.60;;;4.10;;
55316;SDS011;41178;48.956;8.130;2023-04-22T21:57:14;5.20;;;4.30;;
55316;SDS011;41178;48.956;8.130;2023-04-22T22:02:16;5.93;;;4.77;;
55316;SDS011;41178;48.956;8.130;2023-04-22T22:07:18;5.87;;;4.37;;
55316;SDS011;41178;48.956;8.130;2023-04-22T22:12:20;5.07;;;4.47;;
55316;SDS011;41178;48.956;8.130;2023-04-22T22:17:23;6.50;;;4.70;;
55316;SDS011;41178;48.956;8.130;2023-04-22T22:22:25;5.73;;;4.40;;
55316;SDS011;41178;48.956;8.130;2023-04-22T22:27:27;7.90;;;5.50;;
55316;SDS011;41178;48.956;8.130;2023-04-22T22:32:29;6.07;;;5.47;;
55316;SDS011;41178;48.956;8.130;2023-04-22T22:37:31;8.03;;;5.33;;
55316;SDS011;41178;48.956;8.130;2023-04-22T22:42:34;6.97;;;5.03;;
55316;SDS011;41178;48.956;8.130;2023-04-22T22:47:36;6.73;;;4.80;;
55316;SDS011;41178;48.956;8.130;2023-04-22T22:52:38;6.03;;;5.20;;
55316;SDS011;41178;48.956;8.130;2023-04-22T22:57:40;5.50;;;4.63;;
55316;SDS011;41178;48.956;8.130;2023-04-22T23:02:41;6.70;;;5.40;;
55316;SDS011;41178;48.956;8.130;2023-04-22T23:07:43;5.90;;;4.67;;
55316;SDS011;41178;48.956;8.130;2023-04-22T23:12:45;5.13;;;4.30;;
55316;SDS011;41178;48.956;8.130;2023-04-22T23:17:48;5.17;;;4.40;;
55316;SDS011;41178;48.956;8.130;2023-04-22T23:22:50;5.50;;;4.83;;
55316;SDS011;41178;48.956;8.130;2023-04-22T23:27:54;5.70;;;5.17;;
55316;SDS011;41178;48.956;8.130;2023-04-22T23:32:56;5.40;;;4.87;;
55316;SDS011;41178;48.956;8.130;2023-04-22T23:38:02;6.17;;;4.93;;
55316;SDS011;41178;48.956;8.130;2023-04-22T23:43:04;7.23;;;5.30;;
55316;SDS011;41178;48.956;8.130;2023-04-22T23:48:06;6.27;;;5.47;;
55316;SDS011;41178;48.956;8.130;2023-04-22T23:53:09;9.80;;;5.50;;
55316;SDS011;41178;48.956;8.130;2023-04-22T23:58:10;6.03;;;5.03;;
